createdAt,value
2023-03-13T00:01:35.768Z,8.60
2023-03-13T00:04:02.992Z,8.60
2023-03-13T00:06:33.538Z,8.70
2023-03-13T00:09:01.089Z,8.70
2023-03-13T00:11:28.138Z,8.70
2023-03-13T00:13:59.696Z,8.70
2023-03-13T00:16:27.946Z,8.60
2023-03-13T00:18:56.345Z,8.70
2023-03-13T00:21:25.799Z,8.60
2023-03-13T00:24:01.471Z,8.70
2023-03-13T00:26:29.416Z,8.60
2023-03-13T00:28:59.658Z,8.60
2023-03-13T00:31:29.449Z,8.60
2023-03-13T00:34:09.380Z,8.60
2023-03-13T00:36:36.457Z,8.60
2023-03-13T00:39:16.147Z,8.60
2023-03-13T00:41:42.797Z,8.60
2023-03-13T00:44:09.682Z,8.60
2023-03-13T00:46:36.927Z,8.60
2023-03-13T00:49:04.649Z,8.60
2023-03-13T00:51:31.673Z,8.70
2023-03-13T00:53:59.302Z,8.70
2023-03-13T00:56:26.632Z,8.70
2023-03-13T00:58:53.858Z,8.70
2023-03-13T01:01:23.483Z,8.70
2023-03-13T01:03:53.318Z,8.70
2023-03-13T01:06:22.706Z,8.70
2023-03-13T01:08:59.141Z,8.70
2023-03-13T01:11:31.539Z,8.70
2023-03-13T01:14:00.604Z,8.80
2023-03-13T01:16:37.578Z,8.80
2023-03-13T01:19:13.164Z,8.80
2023-03-13T01:21:56.619Z,8.80
2023-03-13T01:24:23.594Z,8.80
2023-03-13T01:26:53.367Z,8.90
2023-03-13T01:29:20.107Z,8.90
2023-03-13T01:31:46.709Z,8.90
2023-03-13T01:34:13.320Z,8.90
2023-03-13T01:36:40.133Z,9.00
2023-03-13T01:39:07.196Z,9.00
2023-03-13T01:41:33.900Z,9.00
2023-03-13T01:44:01.013Z,9.10
2023-03-13T01:49:56.000Z,9.10
2023-03-13T01:52:26.432Z,9.20
2023-03-13T01:55:11.721Z,9.20
2023-03-13T01:57:44.623Z,9.20
2023-03-13T02:00:17.359Z,9.30
2023-03-13T02:02:48.525Z,9.30
2023-03-13T02:05:16.785Z,9.30
2023-03-13T02:07:47.017Z,9.30
2023-03-13T02:10:15.737Z,9.40
2023-03-13T02:12:51.267Z,9.40
2023-03-13T02:15:21.426Z,9.40
2023-03-13T02:18:00.840Z,9.40
2023-03-13T02:20:27.526Z,9.40
2023-03-13T02:23:23.862Z,9.50
2023-03-13T02:25:52.760Z,9.50
2023-03-13T02:28:39.907Z,9.50
2023-03-13T02:31:07.725Z,9.50
2023-03-13T02:33:42.486Z,9.50
2023-03-13T02:36:09.651Z,9.60
2023-03-13T02:38:53.451Z,9.60
2023-03-13T02:41:25.210Z,9.60
2023-03-13T02:49:47.815Z,9.80
2023-03-13T02:55:10.858Z,9.90
2023-03-13T02:57:43.601Z,10.00
2023-03-13T03:00:11.254Z,10.10
2023-03-13T03:02:40.874Z,10.20
2023-03-13T03:05:07.802Z,10.20
2023-03-13T03:07:53.399Z,10.30
2023-03-13T03:10:36.652Z,10.40
2023-03-13T03:13:15.414Z,10.50
2023-03-13T03:15:50.230Z,10.50
2023-03-13T03:18:17.147Z,10.60
2023-03-13T03:20:49.729Z,10.60
2023-03-13T03:25:56.956Z,10.60
2023-03-13T03:28:39.491Z,10.60
2023-03-13T03:31:07.892Z,10.70
2023-03-13T03:33:34.813Z,10.60
2023-03-13T03:36:21.630Z,10.70
2023-03-13T03:38:57.223Z,10.70
2023-03-13T03:41:32.374Z,10.70
2023-03-13T03:44:21.525Z,10.70
2023-03-13T03:47:15.798Z,10.80
2023-03-13T03:49:42.784Z,10.80
2023-03-13T03:52:09.481Z,10.80
2023-03-13T03:54:48.118Z,10.80
2023-03-13T03:57:14.920Z,10.80
2023-03-13T03:59:48.827Z,10.80
2023-03-13T04:02:16.426Z,10.90
2023-03-13T04:04:52.161Z,10.90
2023-03-13T04:07:27.915Z,10.90
2023-03-13T04:10:03.632Z,10.90
2023-03-13T04:12:36.152Z,11.00
2023-03-13T04:15:19.947Z,11.00
2023-03-13T04:17:46.724Z,11.00
2023-03-13T04:20:19.174Z,11.10
2023-03-13T04:23:03.949Z,11.10
2023-03-13T04:25:53.701Z,11.10
2023-03-13T04:28:18.706Z,11.10
2023-03-13T04:30:45.437Z,11.10
2023-03-13T04:33:17.301Z,11.10
2023-03-13T04:35:44.627Z,11.10
2023-03-13T04:38:25.261Z,11.10
2023-03-13T04:41:04.563Z,11.10
2023-03-13T04:43:36.761Z,11.20
2023-03-13T04:46:10.820Z,11.20
2023-03-13T04:48:45.889Z,11.20
2023-03-13T04:51:13.382Z,11.30
2023-03-13T04:53:48.931Z,11.30
2023-03-13T04:56:43.729Z,11.30
2023-03-13T04:59:14.652Z,11.40
2023-03-13T05:01:53.552Z,11.40
2023-03-13T05:04:20.338Z,11.40
2023-03-13T05:06:47.046Z,11.40
2023-03-13T05:09:38.480Z,11.40
2023-03-13T05:12:05.578Z,11.50
2023-03-13T05:14:41.529Z,11.50
2023-03-13T05:17:33.303Z,11.50
2023-03-13T05:20:02.407Z,11.60
2023-03-13T05:22:30.247Z,11.60
2023-03-13T05:24:58.270Z,11.50
2023-03-13T05:27:38.323Z,11.60
2023-03-13T05:30:05.438Z,11.60
2023-03-13T05:32:33.173Z,11.60
2023-03-13T05:35:08.413Z,11.70
2023-03-13T05:37:53.318Z,11.70
2023-03-13T05:40:19.991Z,11.70
2023-03-13T05:42:51.503Z,11.80
2023-03-13T05:45:18.194Z,11.80
2023-03-13T05:47:52.516Z,11.80
2023-03-13T05:50:41.949Z,11.80
2023-03-13T05:53:21.433Z,11.80
2023-03-13T05:56:06.124Z,11.80
2023-03-13T05:58:47.827Z,11.80
2023-03-13T06:01:29.657Z,11.80
2023-03-13T06:04:12.054Z,11.80
2023-03-13T06:06:56.421Z,11.90
2023-03-13T06:09:42.060Z,11.80
2023-03-13T06:12:17.837Z,11.80
2023-03-13T06:14:44.821Z,11.90
2023-03-13T06:17:20.690Z,11.90
2023-03-13T06:19:50.394Z,11.90
2023-03-13T06:22:20.472Z,11.90
2023-03-13T06:24:48.201Z,11.90
2023-03-13T06:27:30.151Z,12.00
2023-03-13T06:29:57.033Z,12.00
2023-03-13T06:32:38.536Z,12.00
2023-03-13T06:35:22.870Z,12.00
2023-03-13T06:38:06.217Z,12.00
2023-03-13T06:43:15.315Z,12.00
2023-03-13T06:45:51.300Z,12.00
2023-03-13T06:48:18.853Z,12.10
2023-03-13T06:51:27.339Z,12.00
2023-03-13T06:54:32.502Z,12.00
2023-03-13T06:56:59.105Z,12.00
2023-03-13T06:59:32.157Z,11.90
2023-03-13T07:01:58.879Z,11.90
2023-03-13T07:04:25.695Z,11.80
2023-03-13T07:07:08.433Z,11.70
2023-03-13T07:09:35.042Z,11.60
2023-03-13T07:12:07.772Z,11.50
2023-03-13T07:14:34.384Z,11.40
2023-03-13T07:17:01.031Z,11.40
2023-03-13T07:19:36.527Z,11.30
2023-03-13T07:22:18.315Z,11.30
2023-03-13T07:24:44.924Z,11.30
2023-03-13T07:27:11.775Z,11.30
2023-03-13T07:29:50.505Z,11.30
2023-03-13T07:32:17.252Z,11.30
2023-03-13T07:34:56.372Z,11.20
2023-03-13T07:37:35.100Z,11.20
2023-03-13T07:40:01.763Z,11.20
2023-03-13T07:42:34.760Z,11.20
2023-03-13T07:45:01.431Z,11.20
2023-03-13T07:47:37.249Z,11.20
2023-03-13T07:50:16.356Z,11.20
2023-03-13T07:52:43.066Z,11.20
2023-03-13T07:55:10.159Z,11.30
2023-03-13T07:57:36.783Z,11.30
2023-03-13T08:00:03.888Z,11.40
2023-03-13T08:02:30.516Z,11.40
2023-03-13T08:04:58.923Z,11.50
2023-03-13T08:07:26.168Z,11.60
2023-03-13T08:13:25.369Z,11.90
2023-03-13T08:16:15.311Z,11.90
2023-03-13T08:18:47.262Z,11.90
2023-03-13T08:21:30.319Z,11.80
2023-03-13T08:24:08.726Z,11.80
2023-03-13T08:26:44.574Z,11.80
2023-03-13T08:31:54.573Z,11.80
2023-03-13T08:34:31.386Z,11.80
2023-03-13T08:36:58.085Z,11.80
2023-03-13T08:39:26.342Z,11.80
2023-03-13T08:41:52.998Z,11.80
2023-03-13T08:44:26.946Z,11.80
2023-03-13T08:46:53.614Z,11.80
2023-03-13T08:49:29.667Z,11.80
2023-03-13T08:52:08.367Z,11.80
2023-03-13T08:54:34.997Z,11.80
2023-03-13T08:57:17.157Z,11.80
2023-03-13T08:59:43.745Z,11.80
2023-03-13T09:02:22.627Z,11.80
2023-03-13T09:04:49.293Z,12.00
2023-03-13T09:07:31.331Z,12.70
2023-03-13T09:12:38.500Z,13.60
2023-03-13T09:15:16.998Z,13.90
2023-03-13T09:17:58.448Z,13.70
2023-03-13T09:20:34.517Z,13.80
2023-03-13T09:23:09.695Z,14.00
2023-03-13T09:25:54.401Z,14.40
2023-03-13T09:31:23.845Z,14.30
2023-03-13T09:34:03.037Z,14.40
2023-03-13T09:36:30.592Z,14.30
2023-03-13T09:39:06.630Z,14.70
2023-03-13T09:42:16.941Z,14.50
2023-03-13T09:45:08.754Z,14.20
2023-03-13T09:50:40.604Z,14.60
2023-03-13T09:53:20.063Z,14.40
2023-03-13T09:55:55.816Z,14.60
2023-03-13T09:58:50.927Z,15.30
2023-03-13T10:01:35.120Z,15.50
2023-03-13T10:07:27.389Z,15.40
2023-03-13T10:09:54.070Z,15.20
2023-03-13T10:12:39.192Z,15.10
2023-03-13T10:18:28.657Z,15.10
2023-03-13T10:21:17.749Z,15.10
2023-03-13T10:24:28.700Z,15.30
2023-03-13T10:27:46.364Z,15.20
2023-03-13T10:30:36.549Z,15.10
2023-03-13T10:33:12.424Z,15.00
2023-03-13T10:36:06.428Z,15.00
2023-03-13T10:39:07.711Z,15.10
2023-03-13T10:41:36.793Z,15.10
2023-03-13T10:44:32.395Z,15.10
2023-03-13T10:47:14.025Z,15.30
2023-03-13T10:52:50.224Z,15.60
2023-03-13T10:55:29.631Z,15.40
2023-03-13T10:58:23.959Z,15.50
2023-03-13T11:01:42.374Z,15.30
2023-03-13T11:04:32.081Z,15.40
2023-03-13T11:07:35.202Z,15.80
2023-03-13T11:10:23.199Z,15.90
2023-03-13T11:15:54.310Z,15.70
2023-03-13T11:22:03.188Z,16.00
2023-03-13T11:28:29.335Z,15.70
2023-03-13T11:34:31.482Z,15.80
2023-03-13T11:37:21.300Z,15.70
2023-03-13T11:40:34.841Z,15.60
2023-03-13T11:43:25.338Z,15.60
2023-03-13T11:46:34.721Z,15.40
2023-03-13T11:49:22.846Z,15.30
2023-03-13T11:52:30.347Z,15.40
2023-03-13T11:55:35.115Z,15.20
2023-03-13T11:58:28.107Z,15.10
2023-03-13T12:01:10.219Z,15.00
2023-03-13T12:03:59.973Z,14.90
2023-03-13T12:06:37.897Z,14.70
2023-03-13T12:09:13.300Z,14.80
2023-03-13T12:12:18.370Z,15.00
2023-03-13T12:15:18.509Z,15.30
2023-03-13T12:24:40.722Z,15.70
2023-03-13T12:27:26.547Z,15.50
2023-03-13T12:33:26.640Z,15.60
2023-03-13T12:36:26.410Z,15.60
2023-03-13T12:39:16.096Z,15.60
2023-03-13T12:41:47.096Z,15.50
2023-03-13T12:44:20.177Z,15.60
2023-03-13T12:50:19.797Z,15.40
2023-03-13T12:53:01.753Z,15.70
2023-03-13T12:56:00.496Z,15.80
2023-03-13T12:58:53.647Z,16.00
2023-03-13T13:01:39.812Z,16.10
2023-03-13T13:04:12.443Z,16.20
2023-03-13T13:07:00.735Z,16.00
2023-03-13T13:10:01.444Z,16.20
2023-03-13T13:12:28.241Z,16.10
2023-03-13T13:14:59.962Z,15.90
2023-03-13T13:17:44.835Z,15.80
2023-03-13T13:21:01.531Z,15.90
2023-03-13T13:23:36.299Z,16.00
2023-03-13T13:26:24.793Z,15.90
2023-03-13T13:28:54.373Z,16.00
2023-03-13T13:31:57.479Z,16.20
2023-03-13T13:34:30.493Z,16.00
2023-03-13T13:37:25.708Z,15.80
2023-03-13T13:39:54.061Z,15.70
2023-03-13T13:42:35.414Z,15.70
2023-03-13T13:45:14.989Z,15.50
2023-03-13T13:47:47.273Z,15.60
2023-03-13T13:50:20.102Z,15.60
2023-03-13T13:52:48.203Z,15.80
2023-03-13T13:55:31.007Z,15.80
2023-03-13T13:58:04.037Z,15.60
2023-03-13T14:00:52.864Z,15.60
2023-03-13T14:03:29.714Z,15.60
2023-03-13T14:06:22.833Z,15.70
2023-03-13T14:08:52.961Z,15.70
2023-03-13T14:11:38.745Z,15.60
2023-03-13T14:14:21.792Z,15.50
2023-03-13T14:16:53.773Z,15.50
2023-03-13T14:19:28.608Z,15.60
2023-03-13T14:22:05.279Z,15.60
2023-03-13T14:24:32.928Z,15.50
2023-03-13T14:27:17.250Z,15.50
2023-03-13T14:30:07.797Z,15.50
2023-03-13T14:32:46.878Z,15.30
2023-03-13T14:35:26.165Z,15.20
2023-03-13T14:38:02.362Z,15.30
2023-03-13T14:40:46.940Z,15.40
2023-03-13T14:43:40.646Z,15.40
2023-03-13T14:46:30.088Z,15.50
2023-03-13T14:48:56.865Z,15.50
2023-03-13T14:51:30.032Z,15.40
2023-03-13T14:57:18.037Z,15.40
2023-03-13T14:59:51.205Z,15.30
2023-03-13T15:02:50.489Z,15.40
2023-03-13T15:05:33.982Z,15.30
2023-03-13T15:08:00.718Z,15.30
2023-03-13T15:10:43.871Z,15.30
2023-03-13T15:13:17.644Z,15.20
2023-03-13T15:15:47.985Z,15.10
2023-03-13T15:18:34.806Z,15.20
2023-03-13T15:21:21.541Z,15.30
2023-03-13T15:27:36.912Z,15.10
2023-03-13T15:30:14.487Z,15.10
2023-03-13T15:32:53.173Z,15.10
2023-03-13T15:35:37.848Z,15.10
2023-03-13T15:38:24.296Z,15.10
2023-03-13T15:40:51.717Z,14.90
2023-03-13T15:43:33.438Z,14.90
2023-03-13T15:46:02.668Z,14.80
2023-03-13T15:48:35.874Z,14.70
2023-03-13T15:51:02.967Z,14.70
2023-03-13T15:53:36.267Z,14.70
2023-03-13T15:56:19.615Z,14.60
2023-03-13T15:58:50.312Z,14.60
2023-03-13T16:01:18.322Z,14.60
2023-03-13T16:03:45.051Z,14.70
2023-03-13T16:06:32.928Z,14.60
2023-03-13T16:09:07.080Z,14.60
2023-03-13T16:11:37.104Z,14.50
2023-03-13T16:14:18.289Z,14.50
2023-03-13T16:17:00.832Z,14.40
2023-03-13T16:19:27.959Z,14.30
2023-03-13T16:22:38.784Z,14.20
2023-03-13T16:25:09.798Z,14.00
2023-03-13T16:27:36.800Z,13.90
2023-03-13T16:33:22.678Z,13.80
2023-03-13T16:35:49.586Z,13.70
2023-03-13T16:40:56.923Z,13.60
2023-03-13T16:43:45.312Z,13.60
2023-03-13T16:46:23.870Z,13.60
2023-03-13T16:49:13.174Z,13.50
2023-03-13T16:51:40.354Z,13.40
2023-03-13T16:54:23.880Z,13.40
2023-03-13T16:57:16.658Z,13.30
2023-03-13T16:59:47.651Z,13.20
2023-03-13T17:02:21.152Z,13.10
2023-03-13T17:04:56.800Z,13.00
2023-03-13T17:20:19.011Z,12.60
2023-03-13T17:22:56.829Z,12.50
2023-03-13T17:25:35.558Z,12.40
2023-03-13T17:28:13.492Z,12.40
2023-03-13T17:39:17.997Z,12.10
2023-03-13T17:41:45.085Z,12.00
2023-03-13T17:47:01.779Z,11.90
2023-03-13T17:49:33.371Z,11.90
2023-03-13T17:52:27.010Z,11.80
2023-03-13T17:54:52.255Z,11.80
2023-03-13T17:57:21.674Z,11.70
2023-03-13T17:59:49.141Z,11.70
2023-03-13T18:04:53.988Z,11.60
2023-03-13T18:10:28.237Z,11.50
2023-03-13T18:12:56.659Z,11.50
2023-03-13T18:15:26.504Z,11.40
2023-03-13T18:17:53.416Z,11.40
2023-03-13T18:23:02.391Z,11.30
2023-03-13T18:25:32.580Z,11.20
2023-03-13T18:28:01.982Z,11.10
2023-03-13T18:30:46.319Z,11.10
2023-03-13T18:33:13.131Z,11.10
2023-03-13T18:35:40.177Z,11.00
2023-03-13T18:38:07.042Z,11.00
2023-03-13T18:40:37.091Z,11.00
2023-03-13T18:43:04.309Z,11.00
2023-03-13T18:45:31.670Z,10.90
2023-03-13T18:47:58.902Z,10.90
2023-03-13T18:51:19.005Z,10.80
2023-03-13T18:53:46.105Z,10.80
2023-03-13T18:56:22.401Z,10.70
2023-03-13T18:58:52.124Z,10.70
2023-03-13T19:01:24.305Z,10.60
2023-03-13T19:03:52.191Z,10.50
2023-03-13T19:06:26.634Z,10.40
2023-03-13T19:08:56.150Z,10.40
2023-03-13T19:14:29.538Z,10.30
2023-03-13T19:16:56.491Z,10.30
2023-03-13T19:19:25.521Z,10.30
2023-03-13T19:24:34.454Z,10.30
2023-03-13T19:27:15.040Z,10.30
2023-03-13T19:29:42.094Z,10.30
2023-03-13T19:32:18.838Z,10.30
2023-03-13T19:34:45.632Z,10.20
2023-03-13T19:37:14.487Z,10.20
2023-03-13T19:39:43.725Z,10.20
2023-03-13T19:42:11.020Z,10.10
2023-03-13T19:44:38.233Z,10.10
2023-03-13T19:47:05.581Z,10.10
2023-03-13T19:49:37.610Z,10.10
2023-03-13T19:52:04.496Z,10.10
2023-03-13T19:54:31.170Z,10.00
2023-03-13T19:56:57.865Z,10.00
2023-03-13T19:59:31.391Z,10.00
2023-03-13T20:02:01.075Z,10.00
2023-03-13T20:04:27.875Z,10.00
2023-03-13T20:09:59.379Z,9.90
2023-03-13T20:12:26.784Z,9.80
2023-03-13T20:14:53.839Z,9.80
2023-03-13T21:05:39.643Z,9.90
2023-03-13T22:12:00.225Z,10.20
2023-03-13T22:56:19.472Z,10.30
2023-03-13T22:58:46.243Z,10.30
2023-03-13T23:01:22.176Z,10.30
2023-03-13T23:04:02.442Z,10.30
2023-03-13T23:06:33.934Z,10.20
2023-03-13T23:09:01.413Z,10.20
2023-03-13T23:11:31.454Z,10.20
2023-03-13T23:14:09.810Z,10.10
2023-03-13T23:16:49.165Z,10.10
2023-03-13T23:19:33.026Z,10.00
2023-03-13T23:22:15.008Z,10.00
2023-03-13T23:24:56.031Z,10.00
2023-03-13T23:27:35.951Z,10.00
2023-03-13T23:30:21.453Z,9.90
2023-03-13T23:54:55.096Z,9.90
